Time;durP1;ratioP1;P1;durP2;ratioP2;P2;SDS_P1;SDS_P2;PMS_P1;PMS_P2;Temp;Humidity;BMP_temperature;BMP_pressure;BME280_temperature;BME280_humidity;BME280_pressure;Samples;Min_cycle;Max_cycle;Signal;HPM_P1;HPM_P2
2023/10/16 00:00:45;;;;;;;2.78;1.63;;;5.80;99.90;;;;;;5020590;28;20199;-93
2023/10/16 00:03:17;;;;;;;2.80;1.92;;;6.10;99.90;;;;;;5263257;23;20230;-94
2023/10/16 00:05:49;;;;;;;2.13;1.92;;;6.20;99.90;;;;;;5322969;23;20278;-94
2023/10/16 00:08:18;;;;;;;1.98;1.80;;;5.90;99.90;;;;;;5027556;28;20207;-93
2023/10/16 00:10:58;;;;;;;2.42;2.20;;;5.90;99.90;;;;;;5204326;23;20222;-93
2023/10/16 00:13:28;;;;;;;2.35;2.10;;;5.80;99.90;;;;;;4993508;28;20197;-93
2023/10/16 00:15:55;;;;;;;3.00;2.10;;;6.90;99.90;;;;;;4985452;28;20180;-93
2023/10/16 00:18:23;;;;;;;1.90;1.70;;;5.90;99.90;;;;;;4995951;28;20178;-93
2023/10/16 00:20:50;;;;;;;2.70;2.50;;;6.10;99.90;;;;;;5141161;23;20271;-94
2023/10/16 00:23:17;;;;;;;2.47;1.85;;;6.20;99.90;;;;;;4999954;28;20208;-93
2023/10/16 00:25:50;;;;;;;3.10;2.80;;;5.90;99.90;;;;;;4995329;28;20192;-93
2023/10/16 00:28:20;;;;;;;1.90;1.80;;;6.00;99.90;;;;;;4997123;28;20219;-93
2023/10/16 00:30:46;;;;;;;2.63;2.20;;;6.20;99.90;;;;;;4998594;28;20199;-93
2023/10/16 00:33:13;;;;;;;2.47;1.80;;;5.90;99.90;;;;;;4996234;28;20204;-93
2023/10/16 00:35:38;;;;;;;2.70;1.90;;;6.00;99.90;;;;;;4996776;28;20438;-92
2023/10/16 00:38:04;;;;;;;2.43;2.00;;;5.90;99.90;;;;;;4993368;28;20187;-93
2023/10/16 00:40:33;;;;;;;2.00;1.80;;;5.50;99.90;;;;;;4990274;28;20188;-94
2023/10/16 00:43:19;;;;;;;1.80;1.60;;;8.00;99.90;;;;;;4991547;28;20221;-93
2023/10/16 00:45:48;;;;;;;1.88;1.70;;;5.70;99.90;;;;;;4995947;28;20191;-94
2023/10/16 00:48:18;;;;;;;2.63;2.25;;;5.80;99.90;;;;;;4989849;28;20302;-93
2023/10/16 00:50:45;;;;;;;1.90;1.80;;;5.80;99.90;;;;;;4993905;28;20251;-93
2023/10/16 00:53:16;;;;;;;2.13;1.83;;;6.00;99.90;;;;;;4996306;28;20181;-93
2023/10/16 00:55:42;;;;;;;2.58;2.00;;;5.80;99.90;;;;;;4989390;28;20204;-93
2023/10/16 00:58:08;;;;;;;2.40;1.98;;;7.90;99.90;;;;;;4994753;28;20538;-93
2023/10/16 01:00:38;;;;;;;2.03;1.92;;;5.50;99.90;;;;;;4996624;28;20198;-93
2023/10/16 01:03:05;;;;;;;2.03;1.90;;;5.70;99.90;;;;;;4992014;28;20207;-93
2023/10/16 01:05:39;;;;;;;3.50;1.90;;;5.40;99.90;;;;;;4983109;28;20192;-94
2023/10/16 01:08:07;;;;;;;2.30;1.60;;;5.80;99.90;;;;;;4997798;28;20230;-93
2023/10/16 01:10:40;;;;;;;2.58;2.10;;;5.40;99.90;;;;;;5142825;23;20222;-92
2023/10/16 01:13:12;;;;;;;2.58;1.80;;;5.80;99.90;;;;;;5019905;28;20238;-93
2023/10/16 01:15:43;;;;;;;2.05;1.80;;;;;;;;;;5078490;23;20326;-93
2023/10/16 01:18:11;;;;;;;1.85;1.65;;;5.40;99.90;;;;;;4999638;28;20192;-93
2023/10/16 01:20:37;;;;;;;3.65;1.92;;;5.30;99.90;;;;;;4999649;23;20247;-93
2023/10/16 01:23:04;;;;;;;1.60;1.50;;;5.90;99.90;;;;;;4988643;28;20258;-93
2023/10/16 01:25:30;;;;;;;1.75;1.65;;;5.40;99.90;;;;;;4971202;28;20197;-92
2023/10/16 01:27:56;;;;;;;3.20;2.50;;;5.50;99.90;;;;;;4968090;29;20226;-93
2023/10/16 01:30:21;;;;;;;2.30;2.10;;;5.60;99.90;;;;;;4968200;28;20436;-93
2023/10/16 01:32:47;;;;;;;2.20;2.00;;;5.30;99.90;;;;;;4970544;28;20212;-92
2023/10/16 01:35:13;;;;;;;2.80;1.73;;;5.60;99.90;;;;;;4970750;28;20192;-93
2023/10/16 01:37:40;;;;;;;2.92;2.15;;;5.20;99.90;;;;;;4975129;28;20175;-92
2023/10/16 01:40:21;;;;;;;2.47;1.75;;;4.90;99.90;;;;;;4990430;28;20173;-93
2023/10/16 01:42:51;;;;;;;2.00;1.90;;;5.00;99.90;;;;;;4971657;28;20270;-93
2023/10/16 01:45:20;;;;;;;2.22;2.08;;;4.50;99.90;;;;;;4979714;28;20172;-93
2023/10/16 01:47:47;;;;;;;2.13;1.80;;;5.00;99.90;;;;;;4970698;28;20232;-93
2023/10/16 01:50:21;;;;;;;2.40;1.70;;;5.20;99.90;;;;;;5288378;23;20303;-93
2023/10/16 01:52:49;;;;;;;2.25;2.05;;;4.90;99.90;;;;;;5023869;23;20245;-93
2023/10/16 01:55:17;;;;;;;2.05;1.90;;;5.00;99.90;;;;;;4993763;28;20188;-92
2023/10/16 01:57:44;;;;;;;2.15;1.90;;;5.00;99.90;;;;;;4991148;28;20214;-92
2023/10/16 02:00:16;;;;;;;1.75;1.63;;;5.00;99.90;;;;;;4991932;28;20191;-92
2023/10/16 02:02:42;;;;;;;3.05;2.20;;;5.00;99.90;;;;;;4995157;28;20215;-92
2023/10/16 02:05:10;;;;;;;2.03;1.77;;;4.90;99.90;;;;;;4999166;28;20216;-92
2023/10/16 02:07:42;;;;;;;1.75;1.63;;;5.20;99.90;;;;;;4998136;28;20207;-93
2023/10/16 02:10:12;;;;;;;3.53;1.73;;;4.90;99.90;;;;;;4989016;28;20181;-93
2023/10/16 02:15:14;;;;;;;2.15;2.00;;;3.70;99.90;;;;;;5441513;23;20230;-93
2023/10/16 02:17:42;;;;;;;1.85;1.75;;;4.70;99.90;;;;;;5023400;28;20193;-93
2023/10/16 02:20:13;;;;;;;1.80;1.70;;;5.10;99.90;;;;;;5022482;28;20196;-94
2023/10/16 02:22:42;;;;;;;2.15;1.90;;;4.90;99.90;;;;;;5011406;28;20202;-92
2023/10/16 02:25:17;;;;;;;2.40;1.42;;;4.80;99.90;;;;;;4999343;28;20183;-92
2023/10/16 02:27:43;;;;;;;3.10;2.10;;;4.80;99.90;;;;;;4998578;28;20221;-92
2023/10/16 02:32:53;;;;;;;4.07;2.13;;;4.70;99.90;;;;;;4995643;28;20196;-94
2023/10/16 02:37:57;;;;;;;3.00;2.70;;;4.80;99.90;;;;;;5131022;23;20250;-92
2023/10/16 02:40:32;;;;;;;2.33;2.00;;;;;;;;;;4996071;28;20172;-93
2023/10/16 02:43:02;;;;;;;2.95;1.73;;;4.70;99.90;;;;;;5003606;28;20273;-93
2023/10/16 02:45:31;;;;;;;2.35;1.80;;;4.30;99.90;;;;;;4979149;28;20175;-92
2023/10/16 02:47:57;;;;;;;2.30;2.10;;;;;;;;;;4974333;28;20211;-93
2023/10/16 02:50:26;;;;;;;3.05;1.90;;;4.50;99.90;;;;;;5221143;23;20206;-93
2023/10/16 02:52:52;;;;;;;2.45;2.25;;;4.50;99.90;;;;;;4981476;28;20208;-94
2023/10/16 02:55:18;;;;;;;3.25;2.42;;;6.10;99.90;;;;;;4979123;28;20231;-94
2023/10/16 02:57:44;;;;;;;2.63;2.20;;;4.40;99.90;;;;;;5181660;23;21179;-94
2023/10/16 03:03:04;;;;;;;2.00;1.90;;;4.60;99.90;;;;;;5008662;28;20186;-94
2023/10/16 03:05:31;;;;;;;4.82;4.35;;;5.10;99.90;;;;;;5297414;23;20215;-93
2023/10/16 03:07:57;;;;;;;2.55;2.03;;;;;;;;;;5014594;23;20212;-93
2023/10/16 03:10:23;;;;;;;2.72;2.20;;;4.50;99.90;;;;;;5033053;23;20219;-92
2023/10/16 03:12:52;;;;;;;2.67;1.90;;;4.40;99.90;;;;;;5011569;28;20204;-93
2023/10/16 03:15:26;;;;;;;2.90;2.10;;;4.40;99.90;;;;;;5028453;23;20237;-93
2023/10/16 03:17:54;;;;;;;1.92;1.73;;;3.60;99.90;;;;;;5019154;23;20220;-92
2023/10/16 03:20:22;;;;;;;2.55;2.35;;;4.30;99.90;;;;;;4998333;28;20205;-93
2023/10/16 03:22:50;;;;;;;2.70;2.50;;;4.40;99.90;;;;;;4974866;28;20209;-93
2023/10/16 03:25:28;;;;;;;3.65;1.90;;;4.80;99.90;;;;;;4997386;28;20212;-93
2023/10/16 03:27:57;;;;;;;2.25;2.13;;;4.30;99.90;;;;;;4992208;28;20224;-92
2023/10/16 03:30:27;;;;;;;3.95;2.05;;;4.50;99.90;;;;;;4996861;28;20176;-93
2023/10/16 03:32:53;;;;;;;3.92;2.38;;;4.90;99.90;;;;;;4976767;28;20195;-92
2023/10/16 03:35:26;;;;;;;3.17;2.13;;;4.50;99.90;;;;;;4987463;28;20224;-92
2023/10/16 03:37:53;;;;;;;3.72;2.40;;;4.70;99.90;;;;;;4993929;28;20181;-93
2023/10/16 03:45:41;;;;;;;2.53;2.33;;;3.40;99.90;;;;;;4991734;28;20234;-92
2023/10/16 03:48:09;;;;;;;2.80;2.40;;;4.50;99.90;;;;;;4999347;28;20277;-93
2023/10/16 03:50:39;;;;;;;4.10;2.10;;;4.90;99.90;;;;;;5195720;23;20246;-93
2023/10/16 03:53:08;;;;;;;4.40;2.13;;;4.30;99.90;;;;;;5167714;23;20337;-93
2023/10/16 03:55:44;;;;;;;4.75;2.90;;;4.70;99.90;;;;;;5000338;28;20186;-93
2023/10/16 03:58:14;;;;;;;2.45;2.25;;;4.20;99.90;;;;;;5062784;23;20219;-93
2023/10/16 04:00:50;;;;;;;2.28;2.08;;;4.70;99.90;;;;;;5000771;28;20183;-92
2023/10/16 04:03:17;;;;;;;2.88;1.92;;;4.50;99.90;;;;;;4989199;28;20201;-93
2023/10/16 04:05:46;;;;;;;2.33;2.10;;;;;;;;;;5130700;23;20492;-94
2023/10/16 04:08:18;;;;;;;2.40;2.20;;;4.30;99.90;;;;;;4980620;28;20253;-93
2023/10/16 04:10:47;;;;;;;2.35;2.15;;;4.30;99.90;;;;;;4995250;28;20174;-93
2023/10/16 04:13:18;;;;;;;3.10;2.50;;;4.00;99.90;;;;;;5050133;23;20210;-93
2023/10/16 04:23:52;;;;;;;4.13;2.38;;;4.30;99.90;;;;;;5022993;28;20212;-92
2023/10/16 04:26:29;;;;;;;3.90;2.40;;;4.10;99.90;;;;;;5155730;23;20201;-93
2023/10/16 04:31:57;;;;;;;4.57;3.72;;;4.10;99.90;;;;;;5431114;23;20222;-92
2023/10/16 04:37:24;;;;;;;3.22;2.40;;;4.00;99.90;;;;;;4974474;28;20167;-92
2023/10/16 04:50:37;;;;;;;2.58;2.38;;;4.20;99.90;;;;;;4985083;28;20198;-92
2023/10/16 04:53:13;;;;;;;2.65;2.45;;;5.70;99.90;;;;;;4978683;28;20209;-93
2023/10/16 05:00:56;;;;;;;3.22;2.92;;;4.10;99.90;;;;;;4989229;28;20203;-92
2023/10/16 05:03:35;;;;;;;3.10;2.80;;;6.10;99.90;;;;;;4989596;28;20216;-92
2023/10/16 05:11:36;;;;;;;3.25;2.95;;;4.10;99.90;;;;;;4987615;28;20191;-92
2023/10/16 05:16:48;;;;;;;2.92;2.63;;;3.70;99.90;;;;;;4996083;28;20182;-90
2023/10/16 05:22:02;;;;;;;5.55;3.42;;;3.70;99.90;;;;;;4992424;28;20243;-91
2023/10/16 06:14:12;;;;;;;4.75;4.35;;;4.60;99.90;;;;;;4986629;28;20201;-85
2023/10/16 06:16:42;;;;;;;5.70;4.18;;;4.40;99.90;;;;;;4978803;28;20187;-85
2023/10/16 06:19:17;;;;;;;4.28;3.88;;;4.60;99.90;;;;;;4976114;28;20291;-85
2023/10/16 06:21:48;;;;;;;5.13;4.63;;;4.90;99.90;;;;;;4989691;28;21234;-85
2023/10/16 06:24:32;;;;;;;6.38;5.82;;;4.70;99.90;;;;;;4973244;28;20211;-85
2023/10/16 06:27:08;;;;;;;4.35;3.95;;;5.00;99.90;;;;;;4976474;28;20186;-85
2023/10/16 06:30:00;;;;;;;4.82;4.10;;;5.00;99.90;;;;;;4977319;28;20188;-85
2023/10/16 06:32:26;;;;;;;4.65;4.20;;;4.50;99.90;;;;;;4979996;28;20230;-85
2023/10/16 06:34:57;;;;;;;4.60;3.80;;;4.60;99.90;;;;;;4986793;28;20189;-85
2023/10/16 06:37:23;;;;;;;5.10;4.70;;;4.70;99.90;;;;;;4983711;28;20192;-85
2023/10/16 06:39:58;;;;;;;5.50;4.60;;;4.60;99.90;;;;;;4980637;28;20242;-85
2023/10/16 06:42:24;;;;;;;6.70;5.53;;;4.80;99.90;;;;;;4980588;28;20664;-85
2023/10/16 06:44:54;;;;;;;7.25;6.00;;;5.20;99.90;;;;;;4983894;28;20605;-84
2023/10/16 06:47:23;;;;;;;5.97;4.72;;;4.70;99.90;;;;;;4978996;28;20212;-85
2023/10/16 06:49:54;;;;;;;5.00;4.50;;;4.80;99.90;;;;;;4979141;28;20192;-85
2023/10/16 06:52:20;;;;;;;5.20;4.80;;;5.00;99.90;;;;;;4977074;28;20210;-85
2023/10/16 06:54:59;;;;;;;6.78;5.85;;;4.80;99.90;;;;;;4980332;28;20257;-85
2023/10/16 06:57:25;;;;;;;5.83;5.23;;;5.50;99.90;;;;;;4976893;28;20198;-85
2023/10/16 06:59:50;;;;;;;5.40;4.90;;;5.10;99.90;;;;;;4979664;28;20537;-85
2023/10/16 07:02:19;;;;;;;5.83;5.33;;;5.40;99.90;;;;;;4979979;28;20217;-85
2023/10/16 07:04:47;;;;;;;6.95;4.70;;;5.30;99.90;;;;;;4968333;28;21005;-85
2023/10/16 07:07:18;;;;;;;6.38;5.35;;;5.20;99.90;;;;;;4983918;28;20188;-84
2023/10/16 07:09:47;;;;;;;6.82;4.97;;;5.80;99.90;;;;;;4997208;28;20199;-84
2023/10/16 07:12:16;;;;;;;10.23;5.50;;;5.60;99.90;;;;;;4981930;28;20249;-85
2023/10/16 07:14:51;;;;;;;5.20;4.70;;;5.70;99.90;;;;;;4995050;28;20194;-84
2023/10/16 07:17:20;;;;;;;5.03;4.50;;;6.00;99.90;;;;;;4990575;28;20198;-84
2023/10/16 07:19:47;;;;;;;6.23;5.23;;;5.80;99.90;;;;;;4993463;28;20221;-83
2023/10/16 07:22:16;;;;;;;8.20;5.50;;;6.00;99.90;;;;;;4991846;28;20199;-83
2023/10/16 07:24:43;;;;;;;5.75;5.13;;;6.40;99.90;;;;;;4987000;28;20203;-84
2023/10/16 07:27:14;;;;;;;8.02;5.38;;;6.60;99.90;;;;;;4988167;28;20208;-85
2023/10/16 07:29:41;;;;;;;7.38;6.20;;;6.50;99.90;;;;;;4985038;28;20200;-85
2023/10/16 07:32:08;;;;;;;6.53;5.05;;;6.20;99.90;;;;;;4987408;28;20206;-85
2023/10/16 07:34:36;;;;;;;5.95;5.40;;;6.80;99.90;;;;;;4971413;28;20223;-85
2023/10/16 07:37:04;;;;;;;5.65;5.15;;;6.10;99.90;;;;;;4982840;28;20192;-85
2023/10/16 07:39:30;;;;;;;6.07;5.57;;;6.20;99.90;;;;;;4971629;28;20260;-85
2023/10/16 07:41:55;;;;;;;5.50;5.07;;;6.30;99.90;;;;;;4973173;28;20302;-85
2023/10/16 07:44:21;;;;;;;5.50;4.87;;;6.90;99.90;;;;;;4975261;28;20192;-85
2023/10/16 07:46:50;;;;;;;5.90;5.40;;;6.80;99.90;;;;;;4976670;28;20691;-85
2023/10/16 07:49:17;;;;;;;5.35;4.85;;;6.90;99.90;;;;;;4985980;28;20653;-85
2023/10/16 07:51:45;;;;;;;5.13;4.68;;;6.80;99.90;;;;;;4985909;28;20184;-84
2023/10/16 07:54:11;;;;;;;5.40;4.85;;;7.30;99.90;;;;;;4978731;28;20224;-85
2023/10/16 07:56:38;;;;;;;5.60;5.10;;;7.40;99.90;;;;;;4978930;28;20275;-85
2023/10/16 07:59:07;;;;;;;7.50;5.25;;;7.50;99.90;;;;;;4992122;28;20474;-85
2023/10/16 08:01:42;;;;;;;5.38;4.97;;;7.00;99.90;;;;;;4997783;28;20223;-85
2023/10/16 08:07:04;;;;;;;6.03;5.28;;;7.40;99.90;;;;;;4986746;28;20180;-85
2023/10/16 08:09:48;;;;;;;6.60;6.00;;;7.60;99.90;;;;;;4980639;28;20342;-85
2023/10/16 08:12:34;;;;;;;6.38;5.78;;;7.80;99.90;;;;;;4984737;28;20270;-85
2023/10/16 08:15:07;;;;;;;6.20;5.70;;;7.70;99.90;;;;;;4970728;28;20283;-85
2023/10/16 08:17:34;;;;;;;7.15;6.50;;;7.80;99.90;;;;;;4967783;28;20188;-85
2023/10/16 08:20:00;;;;;;;5.88;5.13;;;8.30;99.90;;;;;;4974056;28;20244;-84
2023/10/16 08:22:26;;;;;;;6.30;5.70;;;7.90;99.90;;;;;;4976795;28;20208;-83
2023/10/16 08:24:58;;;;;;;6.10;5.53;;;8.30;99.90;;;;;;4971531;28;20226;-86
2023/10/16 08:30:18;;;;;;;6.43;5.80;;;8.10;99.90;;;;;;4994274;28;20199;-85
2023/10/16 08:35:17;;;;;;;6.47;5.28;;;8.30;99.90;;;;;;4993620;28;20187;-86
2023/10/16 08:37:43;;;;;;;5.50;5.10;;;8.60;99.90;;;;;;4981395;28;20593;-86
2023/10/16 08:40:32;;;;;;;8.27;5.70;;;8.70;99.90;;;;;;4992192;28;20192;-86
2023/10/16 08:43:00;;;;;;;10.50;6.30;;;8.90;99.90;;;;;;4980473;28;20241;-85
2023/10/16 08:45:28;;;;;;;6.25;4.75;;;8.80;99.90;;;;;;4980701;28;20227;-85
2023/10/16 08:47:55;;;;;;;11.00;8.88;;;9.10;99.90;;;;;;4982351;28;20213;-86
2023/10/16 08:50:25;;;;;;;8.60;5.82;;;9.50;99.90;;;;;;4983617;28;20189;-85
2023/10/16 08:52:52;;;;;;;12.57;7.70;;;9.60;99.90;;;;;;4991654;28;20196;-85
2023/10/16 08:55:18;;;;;;;10.48;6.82;;;9.90;99.90;;;;;;4992543;28;20201;-85
2023/10/16 08:57:45;;;;;;;15.65;7.47;;;10.20;99.90;;;;;;4984959;28;20270;-85
2023/10/16 09:00:19;;;;;;;7.82;5.88;;;9.90;99.90;;;;;;4978163;28;20200;-86
2023/10/16 09:02:49;;;;;;;8.07;6.80;;;10.10;99.90;;;;;;4979977;28;20705;-86
2023/10/16 09:05:16;;;;;;;6.03;5.10;;;10.30;99.90;;;;;;4978123;28;20206;-85
2023/10/16 09:07:42;;;;;;;12.32;6.10;;;10.40;99.00;;;;;;4981205;28;20209;-85
2023/10/16 09:10:09;;;;;;;22.30;10.70;;;10.60;99.30;;;;;;4981112;28;20246;-86
2023/10/16 09:12:44;;;;;;;5.25;4.43;;;10.40;99.00;;;;;;4977162;28;20516;-85
2023/10/16 09:15:12;;;;;;;7.10;5.47;;;10.50;98.60;;;;;;4977202;28;20244;-86
2023/10/16 09:17:38;;;;;;;5.45;3.88;;;10.60;98.70;;;;;;4981461;28;20194;-86
2023/10/16 09:20:13;;;;;;;4.68;4.13;;;10.90;97.50;;;;;;4980291;28;20180;-85
2023/10/16 09:22:45;;;;;;;9.60;8.00;;;10.80;97.70;;;;;;4976466;28;20284;-86
2023/10/16 09:25:15;;;;;;;6.40;5.80;;;11.30;97.30;;;;;;4975630;28;20183;-87
2023/10/16 09:27:42;;;;;;;5.28;4.60;;;10.80;97.10;;;;;;4970397;28;20297;-86
2023/10/16 09:30:14;;;;;;;7.95;5.05;;;10.80;97.10;;;;;;4974437;28;20179;-86
2023/10/16 09:32:40;;;;;;;4.85;4.45;;;10.90;97.00;;;;;;4972710;28;20200;-86
2023/10/16 09:35:11;;;;;;;5.25;4.75;;;10.90;96.80;;;;;;4975402;28;20187;-87
2023/10/16 09:37:40;;;;;;;12.18;8.75;;;11.20;96.80;;;;;;4974555;28;20215;-87
2023/10/16 09:40:19;;;;;;;5.57;4.95;;;11.20;96.30;;;;;;4975826;28;20195;-86
2023/10/16 09:43:05;;;;;;;6.63;5.35;;;11.30;96.20;;;;;;4986811;28;20203;-87
2023/10/16 09:45:33;;;;;;;5.35;4.85;;;11.20;96.00;;;;;;4980381;28;20198;-86
2023/10/16 09:48:07;;;;;;;6.15;5.10;;;11.70;96.40;;;;;;4977547;28;20683;-86
2023/10/16 09:50:39;;;;;;;6.88;4.95;;;11.30;95.90;;;;;;4971705;28;20194;-86
2023/10/16 09:53:08;;;;;;;7.78;6.95;;;11.20;96.40;;;;;;4971233;28;20238;-85
2023/10/16 09:55:44;;;;;;;6.40;4.70;;;11.40;96.40;;;;;;4968953;28;20191;-86
2023/10/16 09:58:11;;;;;;;5.68;4.78;;;11.70;97.30;;;;;;4970982;28;20764;-85
2023/10/16 10:00:46;;;;;;;5.45;4.88;;;11.60;96.10;;;;;;4978022;28;20317;-86
2023/10/16 10:03:14;;;;;;;5.50;4.95;;;11.50;95.60;;;;;;4965672;28;20326;-84
2023/10/16 10:05:55;;;;;;;6.22;5.55;;;11.70;96.20;;;;;;4967865;28;20192;-85
2023/10/16 10:11:45;;;;;;;6.10;4.32;;;12.00;95.50;;;;;;4965035;28;20206;-88
2023/10/16 10:16:57;;;;;;;4.88;4.47;;;12.80;94.70;;;;;;4990564;28;20230;-85
2023/10/16 10:19:31;;;;;;;4.55;4.15;;;13.10;93.60;;;;;;4982078;28;20235;-86
2023/10/16 10:22:06;;;;;;;5.45;4.30;;;12.60;92.90;;;;;;4987224;28;20193;-87
2023/10/16 10:24:35;;;;;;;4.45;3.65;;;12.60;93.20;;;;;;4975918;28;20195;-86
2023/10/16 10:27:04;;;;;;;5.10;3.80;;;12.70;92.80;;;;;;4976194;28;20196;-86
2023/10/16 10:29:29;;;;;;;5.00;4.20;;;12.20;92.80;;;;;;4973728;28;20648;-86
2023/10/16 10:32:05;;;;;;;4.53;4.17;;;12.40;93.80;;;;;;4975917;28;20198;-87
2023/10/16 10:34:31;;;;;;;4.38;3.97;;;12.70;94.10;;;;;;4973821;28;20438;-86
2023/10/16 10:36:58;;;;;;;5.93;4.73;;;12.50;93.40;;;;;;4980159;28;20177;-86
2023/10/16 10:39:29;;;;;;;3.63;3.35;;;12.30;93.50;;;;;;4992992;28;20538;-86
2023/10/16 10:42:03;;;;;;;4.30;3.60;;;12.40;93.00;;;;;;4976156;28;20189;-86
2023/10/16 10:44:33;;;;;;;3.40;3.08;;;12.60;92.80;;;;;;4975956;28;20195;-86
2023/10/16 10:47:05;;;;;;;3.85;3.55;;;13.00;93.00;;;;;;4977428;28;20195;-87
2023/10/16 10:49:34;;;;;;;4.80;3.45;;;13.20;93.10;;;;;;4972348;28;20190;-86
2023/10/16 10:52:05;;;;;;;5.78;3.85;;;14.20;92.20;;;;;;4972418;28;20184;-86
2023/10/16 10:54:31;;;;;;;3.20;2.90;;;15.10;86.90;;;;;;4975663;28;20243;-86
2023/10/16 10:57:06;;;;;;;3.45;2.78;;;16.40;81.80;;;;;;4975173;28;20212;-87
2023/10/16 10:59:39;;;;;;;6.18;4.50;;;17.50;77.50;;;;;;4973548;28;20650;-86
2023/10/16 11:04:49;;;;;;;2.67;2.47;;;17.90;74.20;;;;;;4981141;28;20255;-86
2023/10/16 11:07:23;;;;;;;3.75;3.10;;;18.00;71.90;;;;;;4973631;28;20199;-87
2023/10/16 11:09:51;;;;;;;3.03;2.63;;;18.50;70.90;;;;;;4978757;28;20171;-87
2023/10/16 11:12:16;;;;;;;1.90;1.80;;;18.50;68.90;;;;;;4991550;28;20196;-86
2023/10/16 11:14:43;;;;;;;3.30;2.50;;;17.40;68.90;;;;;;4992930;28;20227;-86
2023/10/16 11:17:09;;;;;;;2.28;2.00;;;16.30;67.40;;;;;;4986086;28;20227;-87
2023/10/16 11:19:49;;;;;;;2.97;1.90;;;15.30;72.40;;;;;;4980210;28;20181;-87
2023/10/16 11:22:31;;;;;;;2.90;1.80;;;15.10;73.60;;;;;;4978995;28;20649;-85
2023/10/16 11:24:57;;;;;;;2.30;2.10;;;15.90;77.70;;;;;;4976624;28;20224;-86
2023/10/16 11:27:24;;;;;;;5.10;2.78;;;14.40;76.30;;;;;;4981491;28;20224;-86
2023/10/16 11:29:53;;;;;;;3.10;2.03;;;14.60;79.30;;;;;;4981645;28;20195;-87
2023/10/16 11:32:25;;;;;;;2.42;1.92;;;14.70;77.90;;;;;;4980331;28;20222;-87
2023/10/16 11:34:59;;;;;;;2.80;1.75;;;14.40;78.30;;;;;;4986856;28;20188;-86
2023/10/16 11:37:25;;;;;;;2.13;1.92;;;14.50;78.20;;;;;;4985047;28;20293;-86
2023/10/16 11:39:54;;;;;;;3.03;1.93;;;14.40;77.50;;;;;;4954522;28;20193;-87
2023/10/16 11:42:20;;;;;;;1.80;1.70;;;14.40;77.60;;;;;;4979499;28;20467;-85
2023/10/16 11:44:51;;;;;;;1.70;1.45;;;14.10;77.90;;;;;;4977450;28;20208;-85
2023/10/16 11:47:18;;;;;;;2.10;2.00;;;14.00;78.50;;;;;;4979891;28;20282;-85
2023/10/16 11:49:54;;;;;;;2.85;1.95;;;13.80;80.20;;;;;;4968855;28;20196;-87
2023/10/16 11:52:22;;;;;;;1.70;1.60;;;14.00;80.60;;;;;;4985789;28;20208;-86
2023/10/16 11:54:57;;;;;;;1.92;1.83;;;13.90;79.50;;;;;;4994537;28;20242;-86
2023/10/16 11:57:24;;;;;;;2.65;1.70;;;13.40;78.10;;;;;;4986067;28;20183;-86
2023/10/16 11:59:52;;;;;;;2.83;2.28;;;13.70;78.90;;;;;;4974841;28;20197;-86
2023/10/16 12:02:19;;;;;;;3.90;2.97;;;13.90;78.20;;;;;;4978264;28;20291;-86
2023/10/16 12:04:46;;;;;;;2.38;2.03;;;14.20;79.30;;;;;;4979276;28;20196;-86
2023/10/16 12:07:13;;;;;;;1.80;1.70;;;13.90;79.40;;;;;;4975531;28;20215;-86
2023/10/16 12:09:48;;;;;;;3.17;2.05;;;14.00;79.10;;;;;;4981206;28;20589;-86
2023/10/16 12:12:20;;;;;;;2.17;1.90;;;14.10;78.90;;;;;;4971015;28;20675;-87
2023/10/16 12:14:49;;;;;;;1.80;1.70;;;13.70;79.30;;;;;;4975967;28;20207;-86
2023/10/16 12:17:19;;;;;;;1.65;1.55;;;14.00;79.80;;;;;;4973022;28;20661;-86
2023/10/16 12:19:45;;;;;;;2.05;1.85;;;13.90;80.10;;;;;;4966954;28;20192;-88
2023/10/16 12:22:15;;;;;;;4.00;2.08;;;14.10;79.50;;;;;;4977841;28;20183;-85
2023/10/16 12:24:41;;;;;;;3.95;2.22;;;14.50;80.40;;;;;;4971819;28;20562;-86
2023/10/16 12:27:07;;;;;;;2.25;2.05;;;14.20;79.10;;;;;;4978111;28;20642;-86
2023/10/16 12:29:33;;;;;;;2.13;2.00;;;14.10;79.10;;;;;;4972797;28;20176;-89
2023/10/16 12:32:02;;;;;;;1.63;1.53;;;14.00;78.20;;;;;;4972681;28;20660;-88
2023/10/16 12:34:32;;;;;;;2.60;1.90;;;13.50;78.50;;;;;;4976445;28;20247;-88
2023/10/16 12:36:57;;;;;;;2.70;2.50;;;13.70;79.70;;;;;;4971454;28;20617;-88
2023/10/16 12:39:25;;;;;;;2.70;2.10;;;13.40;80.30;;;;;;4970356;28;20184;-88
2023/10/16 12:41:55;;;;;;;2.22;1.88;;;13.50;82.00;;;;;;4970806;28;20192;-88
2023/10/16 12:44:23;;;;;;;5.65;2.38;;;14.10;80.20;;;;;;4971483;28;20279;-88
2023/10/16 12:46:49;;;;;;;2.65;1.90;;;13.90;80.50;;;;;;4989858;28;20183;-89
2023/10/16 12:49:15;;;;;;;1.90;1.80;;;13.80;79.80;;;;;;4988986;28;20227;-87
2023/10/16 12:51:42;;;;;;;2.30;2.10;;;14.20;80.00;;;;;;4973447;28;20272;-88
2023/10/16 12:54:09;;;;;;;2.40;2.00;;;13.70;78.90;;;;;;4975553;28;20200;-87
2023/10/16 12:56:35;;;;;;;2.10;1.90;;;14.20;80.50;;;;;;4972852;28;20275;-86
2023/10/16 12:59:02;;;;;;;2.40;2.20;;;13.60;80.50;;;;;;4975726;28;20204;-87
2023/10/16 13:01:27;;;;;;;3.58;2.42;;;13.60;80.80;;;;;;4973987;28;20443;-87
2023/10/16 13:03:59;;;;;;;2.30;1.93;;;13.70;80.50;;;;;;4972587;28;20251;-87
2023/10/16 13:06:30;;;;;;;3.50;1.90;;;14.20;80.90;;;;;;4973969;28;20192;-87
2023/10/16 13:08:57;;;;;;;2.20;2.00;;;13.80;78.90;;;;;;4983155;28;20219;-88
2023/10/16 13:11:24;;;;;;;2.20;1.75;;;14.20;79.40;;;;;;4974429;28;20184;-90
2023/10/16 13:13:50;;;;;;;2.95;2.05;;;13.80;80.20;;;;;;4967066;28;20211;-87
2023/10/16 13:16:24;;;;;;;2.53;2.10;;;13.80;79.10;;;;;;4975952;28;20181;-87
2023/10/16 13:18:57;;;;;;;3.17;2.15;;;13.90;78.70;;;;;;4973885;28;20185;-88
2023/10/16 13:21:33;;;;;;;2.65;1.90;;;13.70;79.30;;;;;;4972550;28;20275;-87
2023/10/16 13:24:09;;;;;;;2.80;2.10;;;13.50;79.40;;;;;;4976512;28;20204;-86
2023/10/16 13:26:36;;;;;;;2.15;1.92;;;13.70;78.70;;;;;;4959168;28;20655;-86
2023/10/16 13:29:07;;;;;;;7.88;1.98;;;13.90;78.60;;;;;;4977383;28;20228;-87
2023/10/16 13:31:35;;;;;;;2.30;1.83;;;13.70;78.00;;;;;;4971325;28;20229;-87
2023/10/16 13:34:02;;;;;;;1.50;1.40;;;13.80;76.80;;;;;;4972694;28;20223;-87
2023/10/16 13:36:29;;;;;;;2.70;2.03;;;13.60;77.80;;;;;;4956095;28;20188;-88
2023/10/16 13:38:55;;;;;;;1.85;1.70;;;13.70;77.00;;;;;;4971622;28;20323;-87
2023/10/16 13:41:21;;;;;;;2.10;1.90;;;13.80;75.90;;;;;;4971875;28;20243;-87
2023/10/16 13:43:47;;;;;;;1.97;1.77;;;13.70;75.50;;;;;;4975842;28;20582;-87
2023/10/16 13:46:14;;;;;;;2.03;1.83;;;13.90;77.20;;;;;;4978435;28;20443;-86
2023/10/16 13:48:45;;;;;;;2.25;2.00;;;14.40;77.00;;;;;;4975672;28;20834;-87
2023/10/16 13:51:13;;;;;;;1.77;1.65;;;14.70;77.30;;;;;;4965442;28;20559;-87
2023/10/16 13:53:39;;;;;;;3.70;1.73;;;14.30;76.90;;;;;;4973195;28;20209;-88
2023/10/16 13:56:05;;;;;;;2.10;2.00;;;14.00;78.40;;;;;;4994564;28;20173;-89
2023/10/16 13:58:31;;;;;;;3.73;1.63;;;15.20;78.10;;;;;;4977625;28;20732;-86
2023/10/16 14:00:57;;;;;;;3.00;1.60;;;13.70;75.90;;;;;;4978597;28;20184;-87
2023/10/16 14:03:24;;;;;;;1.73;1.60;;;14.20;76.30;;;;;;4986413;28;20310;-88
2023/10/16 14:05:51;;;;;;;1.70;1.60;;;13.90;75.40;;;;;;4975756;28;20196;-88
2023/10/16 14:08:30;;;;;;;2.33;1.85;;;13.40;73.50;;;;;;5010002;28;20204;-89
2023/10/16 14:11:00;;;;;;;2.40;1.83;;;15.60;76.10;;;;;;4989046;28;20291;-88
2023/10/16 14:13:27;;;;;;;2.33;1.83;;;14.10;74.60;;;;;;4994568;28;20203;-88
2023/10/16 14:15:57;;;;;;;1.83;1.50;;;14.10;75.20;;;;;;4970906;28;20192;-88
2023/10/16 14:18:26;;;;;;;1.60;1.50;;;13.80;75.80;;;;;;4979601;28;20200;-88
2023/10/16 14:20:53;;;;;;;1.70;1.60;;;13.70;73.10;;;;;;4985737;28;20195;-89
2023/10/16 14:23:19;;;;;;;2.30;1.60;;;13.70;72.50;;;;;;5002375;28;20231;-88
2023/10/16 14:25:50;;;;;;;1.67;1.58;;;13.90;73.50;;;;;;4993016;28;20909;-85
2023/10/16 14:28:33;;;;;;;2.08;1.50;;;13.60;72.60;;;;;;4989420;28;20234;-86
2023/10/16 14:31:04;;;;;;;2.03;1.30;;;13.50;72.10;;;;;;4978854;28;20192;-86
2023/10/16 14:33:31;;;;;;;1.70;1.60;;;13.60;73.20;;;;;;4967632;28;20307;-86
2023/10/16 14:36:02;;;;;;;1.40;1.30;;;14.10;74.20;;;;;;4960396;28;20189;-86
2023/10/16 14:38:28;;;;;;;1.67;1.58;;;13.70;73.40;;;;;;4977732;28;20192;-86
2023/10/16 14:41:08;;;;;;;1.80;1.40;;;13.70;73.40;;;;;;4965845;28;20236;-85
2023/10/16 14:43:37;;;;;;;4.10;1.58;;;13.40;71.60;;;;;;4969567;28;20220;-86
2023/10/16 14:46:10;;;;;;;1.90;1.55;;;13.80;71.50;;;;;;4973283;28;20270;-87
2023/10/16 14:48:45;;;;;;;3.08;1.42;;;13.80;71.00;;;;;;4974976;28;20216;-87
2023/10/16 14:51:16;;;;;;;1.50;1.40;;;13.40;70.70;;;;;;4980271;28;20190;-87
2023/10/16 14:53:43;;;;;;;1.85;1.38;;;13.40;71.70;;;;;;4961237;28;20235;-88
2023/10/16 14:56:10;;;;;;;1.40;1.25;;;13.30;72.50;;;;;;4972915;28;20242;-87
2023/10/16 14:58:36;;;;;;;2.63;1.60;;;13.50;73.10;;;;;;4974087;28;20243;-87
2023/10/16 15:01:14;;;;;;;1.43;1.23;;;13.50;73.40;;;;;;4964069;28;20199;-88
2023/10/16 15:03:40;;;;;;;2.85;1.15;;;13.50;73.50;;;;;;4978262;28;20216;-87
2023/10/16 15:06:08;;;;;;;1.40;1.30;;;13.50;73.60;;;;;;4990703;28;20191;-87
2023/10/16 15:08:37;;;;;;;3.38;1.50;;;13.60;73.50;;;;;;4987476;28;20462;-87